Time;durP1;ratioP1;P1;durP2;ratioP2;P2;SDS_P1;SDS_P2;PMS_P1;PMS_P2;Temp;Humidity;BMP_temperature;BMP_pressure;BME280_temperature;BME280_humidity;BME280_pressure;Samples;Min_cycle;Max_cycle;Signal;HPM_P1;HPM_P2
2022/10/21 00:01:50;;;;;;;17.63;9.30;;;10.40;99.90;;;;;;5092699;28;20032;-85
2022/10/21 00:04:17;;;;;;;20.27;9.48;;;10.60;99.90;;;;;;5092412;28;20044;-84
2022/10/21 00:06:45;;;;;;;18.15;8.95;;;10.60;99.90;;;;;;5092304;28;20123;-84
2022/10/21 00:09:12;;;;;;;19.10;9.27;;;10.60;99.90;;;;;;5108901;28;20097;-84
2022/10/21 00:11:38;;;;;;;17.45;8.68;;;10.50;99.90;;;;;;5092439;28;20044;-84
2022/10/21 00:14:05;;;;;;;17.30;8.82;;;10.60;99.90;;;;;;5095930;28;20055;-84
2022/10/21 00:16:32;;;;;;;16.98;8.25;;;10.50;99.90;;;;;;5095752;28;20074;-84
2022/10/21 00:18:59;;;;;;;19.25;9.02;;;10.60;99.90;;;;;;5079704;28;20085;-84
2022/10/21 00:21:25;;;;;;;20.92;8.95;;;10.50;99.90;;;;;;5095835;28;20062;-84
2022/10/21 00:23:52;;;;;;;20.17;9.57;;;10.50;99.90;;;;;;5079789;28;20500;-84
2022/10/21 00:26:19;;;;;;;23.48;8.27;;;10.50;99.90;;;;;;5079032;28;20051;-84
2022/10/21 00:28:46;;;;;;;16.42;8.02;;;10.50;99.90;;;;;;5096100;28;20130;-84
2022/10/21 00:31:15;;;;;;;18.27;9.10;;;10.50;99.90;;;;;;5092184;28;20140;-84
2022/10/21 00:33:42;;;;;;;26.00;8.60;;;10.40;99.90;;;;;;5092051;28;20045;-84
2022/10/21 00:36:13;;;;;;;19.92;9.00;;;10.40;99.90;;;;;;5092357;28;20032;-85
2022/10/21 00:38:42;;;;;;;20.25;8.82;;;10.40;99.90;;;;;;5076453;28;20036;-85
2022/10/21 00:41:08;;;;;;;22.73;9.05;;;10.40;99.90;;;;;;5104833;28;20047;-85
2022/10/21 00:44:03;;;;;;;20.45;8.43;;;10.40;99.90;;;;;;5091888;28;20037;-85
2022/10/21 00:46:30;;;;;;;17.63;8.70;;;10.30;99.90;;;;;;5090054;28;20131;-84
2022/10/21 00:49:00;;;;;;;19.27;8.52;;;10.30;99.90;;;;;;5092168;28;20127;-85
2022/10/21 00:51:27;;;;;;;18.40;8.65;;;10.30;99.90;;;;;;5102369;28;20075;-85
2022/10/21 00:53:54;;;;;;;20.08;8.32;;;10.20;99.90;;;;;;5112186;28;20032;-84
2022/10/21 00:56:27;;;;;;;18.38;8.20;;;10.20;99.90;;;;;;5078396;28;20063;-84
2022/10/21 00:58:58;;;;;;;17.52;8.07;;;10.20;99.90;;;;;;5095604;28;20040;-85
2022/10/21 01:01:24;;;;;;;22.27;8.50;;;10.30;99.90;;;;;;5128527;28;20487;-84
2022/10/21 01:03:51;;;;;;;17.52;8.00;;;10.30;99.90;;;;;;5095079;28;20112;-85
2022/10/21 01:06:21;;;;;;;21.38;8.27;;;10.30;99.90;;;;;;5095263;28;20035;-84
2022/10/21 01:08:49;;;;;;;17.63;7.93;;;10.30;99.90;;;;;;5111587;28;20165;-84
2022/10/21 01:11:18;;;;;;;18.40;7.72;;;10.30;99.90;;;;;;5111761;28;20048;-84
2022/10/21 01:13:58;;;;;;;16.35;7.70;;;10.30;99.90;;;;;;5090867;28;20048;-84
2022/10/21 01:16:42;;;;;;;18.48;8.98;;;10.30;99.90;;;;;;5091327;28;20049;-81
2022/10/21 01:19:44;;;;;;;17.63;7.80;;;10.30;99.90;;;;;;5091858;28;20047;-84
2022/10/21 01:22:39;;;;;;;19.85;8.88;;;10.30;99.90;;;;;;5094859;28;20040;-84
2022/10/21 01:25:24;;;;;;;17.02;8.15;;;10.30;99.90;;;;;;5110795;28;20040;-85
2022/10/21 01:28:28;;;;;;;15.73;7.43;;;10.30;99.90;;;;;;5111734;28;20044;-84
2022/10/21 01:31:16;;;;;;;20.30;8.50;;;10.30;99.90;;;;;;5111436;28;20274;-84
2022/10/21 01:33:53;;;;;;;21.38;7.75;;;10.40;99.90;;;;;;5111192;28;20044;-84
2022/10/21 01:36:43;;;;;;;17.15;7.40;;;10.30;99.90;;;;;;5111858;28;20040;-84
2022/10/21 01:39:41;;;;;;;17.20;7.60;;;10.30;99.90;;;;;;5100792;28;20051;-84
2022/10/21 01:42:17;;;;;;;13.95;7.43;;;10.30;99.90;;;;;;5090924;28;20055;-84
2022/10/21 01:44:51;;;;;;;17.33;8.63;;;10.30;99.90;;;;;;5110813;28;20526;-84
2022/10/21 01:47:28;;;;;;;14.10;7.78;;;10.20;99.90;;;;;;5111091;28;20040;-84
2022/10/21 01:50:09;;;;;;;18.83;8.15;;;10.20;99.90;;;;;;5111007;28;20032;-84
2022/10/21 01:52:40;;;;;;;17.20;8.15;;;10.20;99.90;;;;;;5110750;28;20044;-85
2022/10/21 01:55:13;;;;;;;13.98;8.13;;;10.30;99.90;;;;;;5111041;28;20039;-85
2022/10/21 01:57:44;;;;;;;19.73;8.23;;;10.30;99.90;;;;;;5110628;28;20036;-84
2022/10/21 02:00:11;;;;;;;14.00;7.30;;;10.40;99.90;;;;;;5110990;28;20040;-84
2022/10/21 02:02:42;;;;;;;16.90;7.97;;;10.30;99.90;;;;;;5094038;28;20036;-84
2022/10/21 02:05:15;;;;;;;14.02;6.93;;;10.40;99.90;;;;;;5110508;28;20036;-84
2022/10/21 02:07:42;;;;;;;15.93;7.07;;;10.30;99.90;;;;;;5110966;28;20040;-84
2022/10/21 02:10:09;;;;;;;15.25;7.13;;;10.30;99.90;;;;;;5127930;28;20070;-84
2022/10/21 02:12:38;;;;;;;17.15;8.20;;;10.40;99.90;;;;;;5110230;28;20040;-84
2022/10/21 02:15:08;;;;;;;16.13;7.97;;;10.40;99.90;;;;;;5126838;28;20052;-84
2022/10/21 02:17:39;;;;;;;13.40;7.50;;;10.50;99.90;;;;;;5109912;28;20126;-84
2022/10/21 02:20:09;;;;;;;19.33;8.40;;;10.50;99.90;;;;;;5110524;28;20042;-85
2022/10/21 02:22:37;;;;;;;17.15;7.57;;;10.60;99.90;;;;;;5110537;28;20043;-85
2022/10/21 02:25:10;;;;;;;17.27;7.68;;;10.60;99.90;;;;;;5127284;28;20122;-83
2022/10/21 02:27:37;;;;;;;16.48;7.75;;;10.60;99.90;;;;;;5126901;28;20044;-84
2022/10/21 02:30:04;;;;;;;17.60;7.70;;;10.70;99.90;;;;;;5093483;28;20381;-84
2022/10/21 02:32:55;;;;;;;18.30;8.75;;;10.70;99.90;;;;;;5093823;28;20122;-84
2022/10/21 02:35:24;;;;;;;23.15;8.90;;;10.70;99.90;;;;;;5109803;28;20486;-85
2022/10/21 02:37:56;;;;;;;18.40;9.10;;;10.80;99.90;;;;;;5109901;28;20039;-85
2022/10/21 02:40:31;;;;;;;20.65;8.65;;;10.90;99.90;;;;;;5110273;28;20164;-84
2022/10/21 02:43:21;;;;;;;20.30;8.02;;;10.90;99.90;;;;;;5109708;28;20130;-84
2022/10/21 02:45:48;;;;;;;18.27;7.53;;;10.90;99.90;;;;;;5126893;28;20101;-84
2022/10/21 02:48:15;;;;;;;16.73;8.63;;;10.90;99.90;;;;;;5076625;28;20036;-84
2022/10/21 02:50:42;;;;;;;13.20;7.35;;;10.90;99.90;;;;;;5093151;28;20047;-85
2022/10/21 02:53:10;;;;;;;16.30;7.90;;;11.00;99.90;;;;;;5093248;28;20040;-84
2022/10/21 02:55:37;;;;;;;16.05;6.70;;;11.00;99.90;;;;;;5110178;28;20123;-85
2022/10/21 02:58:04;;;;;;;16.48;7.82;;;11.00;99.90;;;;;;5075554;28;20126;-84
2022/10/21 03:00:30;;;;;;;23.15;7.38;;;11.00;99.90;;;;;;5093056;28;20038;-84
2022/10/21 03:02:57;;;;;;;16.45;7.20;;;11.10;99.90;;;;;;5076069;28;20083;-85
2022/10/21 03:05:24;;;;;;;20.73;7.30;;;11.10;99.90;;;;;;5093260;28;20128;-84
2022/10/21 03:07:51;;;;;;;15.93;7.35;;;11.60;99.90;;;;;;5092706;28;20039;-84
2022/10/21 03:10:17;;;;;;;20.40;7.10;;;11.20;99.90;;;;;;5093409;28;20040;-85
2022/10/21 03:12:44;;;;;;;17.02;8.32;;;11.20;99.90;;;;;;5076022;28;20069;-84
2022/10/21 03:15:11;;;;;;;19.48;7.57;;;11.20;99.90;;;;;;5092873;28;20052;-85
2022/10/21 03:17:37;;;;;;;17.42;7.55;;;11.20;99.90;;;;;;5093390;28;20089;-85
2022/10/21 03:20:04;;;;;;;15.20;7.18;;;11.30;99.90;;;;;;5072713;28;20059;-85
2022/10/21 03:22:32;;;;;;;16.05;7.15;;;11.30;99.90;;;;;;5089398;28;20048;-84
2022/10/21 03:24:59;;;;;;;20.67;7.28;;;11.40;99.90;;;;;;5089187;28;20133;-85
2022/10/21 03:27:26;;;;;;;12.93;6.20;;;11.40;99.90;;;;;;5073350;28;20523;-84
2022/10/21 03:29:53;;;;;;;15.07;7.10;;;11.40;99.90;;;;;;5072708;28;20047;-85
2022/10/21 03:32:19;;;;;;;15.23;7.47;;;11.40;99.90;;;;;;5106011;28;20052;-85
2022/10/21 03:34:46;;;;;;;12.10;6.28;;;11.40;99.90;;;;;;5089223;28;20039;-84
2022/10/21 03:37:13;;;;;;;17.23;7.00;;;11.40;99.90;;;;;;5072620;28;20047;-84
2022/10/21 03:39:40;;;;;;;19.88;7.43;;;11.40;99.90;;;;;;5072964;28;20132;-84
2022/10/21 03:42:07;;;;;;;13.88;6.55;;;11.40;99.90;;;;;;5055844;28;20064;-84
2022/10/21 03:44:33;;;;;;;14.32;6.50;;;11.40;99.90;;;;;;5097192;28;20036;-85
2022/10/21 03:47:00;;;;;;;16.13;6.28;;;11.40;99.90;;;;;;5076474;28;20039;-85
2022/10/21 03:49:27;;;;;;;14.05;6.65;;;11.40;99.90;;;;;;5113612;28;20043;-85
2022/10/21 03:51:53;;;;;;;15.73;6.72;;;11.40;99.90;;;;;;5096473;28;20036;-84
2022/10/21 03:54:20;;;;;;;15.30;7.22;;;11.40;99.90;;;;;;5096162;28;20518;-84
2022/10/21 03:56:47;;;;;;;21.02;7.60;;;11.50;99.90;;;;;;5113237;28;20400;-84
2022/10/21 03:59:13;;;;;;;19.02;8.02;;;11.50;99.90;;;;;;5113595;28;20044;-85
2022/10/21 04:01:40;;;;;;;15.27;7.13;;;11.50;99.90;;;;;;5096745;28;20126;-86
2022/10/21 04:04:07;;;;;;;17.17;7.50;;;11.50;99.90;;;;;;5113323;28;20131;-85
2022/10/21 04:06:34;;;;;;;25.48;8.55;;;11.50;99.90;;;;;;5078969;28;20044;-85
2022/10/21 04:09:00;;;;;;;22.38;7.68;;;11.60;99.90;;;;;;5096531;28;20036;-84
2022/10/21 04:11:27;;;;;;;20.92;8.00;;;11.60;99.90;;;;;;5113378;28;20090;-85
2022/10/21 04:13:55;;;;;;;22.10;8.60;;;11.60;99.90;;;;;;5112527;28;20079;-85
2022/10/21 04:16:22;;;;;;;19.67;8.30;;;12.10;99.90;;;;;;5086392;28;20088;-85
2022/10/21 04:18:52;;;;;;;18.85;7.65;;;11.70;99.90;;;;;;5092370;28;20041;-84
2022/10/21 04:21:19;;;;;;;15.07;7.38;;;11.70;99.90;;;;;;5076599;28;20090;-84
2022/10/21 04:23:45;;;;;;;17.80;7.72;;;11.70;99.90;;;;;;5109303;28;20127;-85
2022/10/21 04:26:12;;;;;;;20.40;8.10;;;11.70;99.90;;;;;;5101591;28;20078;-85
2022/10/21 04:28:39;;;;;;;16.45;7.72;;;11.70;99.90;;;;;;5096567;28;20108;-86
2022/10/21 04:31:05;;;;;;;17.90;8.05;;;11.70;99.90;;;;;;5095712;28;20043;-85
2022/10/21 04:33:32;;;;;;;12.55;7.07;;;11.60;99.90;;;;;;5112482;28;20039;-85
2022/10/21 04:35:59;;;;;;;14.40;7.07;;;11.70;99.90;;;;;;5095241;28;20036;-85
2022/10/21 04:38:26;;;;;;;16.00;7.65;;;11.60;99.90;;;;;;5096267;28;20851;-85
2022/10/21 04:40:56;;;;;;;17.63;7.18;;;11.60;99.90;;;;;;5112296;28;20059;-85
2022/10/21 04:43:23;;;;;;;17.55;7.40;;;11.60;99.90;;;;;;5112822;28;20140;-85
2022/10/21 04:45:50;;;;;;;19.42;7.53;;;11.60;99.90;;;;;;5112421;28;20039;-85
2022/10/21 04:48:17;;;;;;;16.80;8.10;;;11.60;99.90;;;;;;5112316;28;20495;-85
2022/10/21 04:50:43;;;;;;;23.23;7.57;;;11.60;99.90;;;;;;5112376;28;20479;-86
2022/10/21 04:53:10;;;;;;;15.70;7.47;;;11.50;99.90;;;;;;5095124;28;20068;-85
2022/10/21 04:55:40;;;;;;;18.05;7.13;;;11.50;99.90;;;;;;5079330;28;20040;-86
2022/10/21 04:58:07;;;;;;;17.92;7.18;;;11.40;99.90;;;;;;5111622;28;20093;-85
2022/10/21 05:00:33;;;;;;;17.08;6.97;;;11.40;99.90;;;;;;5079266;28;20032;-86
2022/10/21 05:03:00;;;;;;;16.63;7.88;;;11.30;99.90;;;;;;5078962;28;20044;-85
2022/10/21 05:05:27;;;;;;;17.08;7.53;;;11.40;99.90;;;;;;5112201;28;20071;-85
2022/10/21 05:07:53;;;;;;;16.02;7.35;;;11.30;99.90;;;;;;5075145;28;20040;-85
2022/10/21 05:10:21;;;;;;;15.60;7.20;;;11.30;99.90;;;;;;5058495;28;20097;-86
2022/10/21 05:12:47;;;;;;;14.45;6.97;;;11.30;99.90;;;;;;5075034;28;20508;-85
2022/10/21 05:15:14;;;;;;;14.57;6.88;;;11.30;99.90;;;;;;5057961;28;20053;-85
2022/10/21 05:17:41;;;;;;;15.93;7.22;;;11.30;99.90;;;;;;5058619;28;20075;-85
2022/10/21 05:20:08;;;;;;;17.67;6.78;;;11.30;99.90;;;;;;5075968;28;20040;-85
2022/10/21 05:22:35;;;;;;;12.50;6.80;;;11.30;99.90;;;;;;5111750;28;20044;-85
2022/10/21 05:25:02;;;;;;;14.52;6.50;;;11.30;99.90;;;;;;5094749;28;20047;-85
2022/10/21 05:27:29;;;;;;;24.58;7.55;;;11.30;99.90;;;;;;5094673;28;20119;-85
2022/10/21 05:29:57;;;;;;;17.60;7.30;;;11.20;99.90;;;;;;5111271;28;20040;-85
2022/10/21 05:32:24;;;;;;;15.00;6.43;;;11.20;99.90;;;;;;5078436;28;20036;-85
2022/10/21 05:34:51;;;;;;;16.20;6.60;;;11.20;99.90;;;;;;5111584;28;20040;-85
2022/10/21 05:37:17;;;;;;;15.57;7.30;;;11.20;99.90;;;;;;5094347;28;20039;-85
2022/10/21 05:39:44;;;;;;;15.07;6.53;;;11.20;99.90;;;;;;5074856;28;20103;-85
2022/10/21 05:42:11;;;;;;;17.90;7.30;;;11.20;99.90;;;;;;5074258;28;20089;-85
2022/10/21 05:44:37;;;;;;;15.63;7.20;;;11.20;99.90;;;;;;5075546;28;20035;-85
2022/10/21 05:47:04;;;;;;;17.38;7.85;;;11.10;99.90;;;;;;5083325;28;20036;-85
2022/10/21 05:49:31;;;;;;;20.70;7.80;;;11.10;99.90;;;;;;5096500;28;20035;-85
2022/10/21 05:51:57;;;;;;;15.23;7.28;;;11.20;99.90;;;;;;5110730;28;20040;-85
2022/10/21 05:54:24;;;;;;;17.48;7.28;;;11.20;99.90;;;;;;5110424;28;20032;-84
2022/10/21 05:56:57;;;;;;;14.35;6.55;;;11.20;99.90;;;;;;5094426;28;20032;-85
2022/10/21 05:59:25;;;;;;;17.25;7.85;;;11.10;99.90;;;;;;5093402;28;20048;-85
2022/10/21 06:01:52;;;;;;;23.95;7.60;;;11.10;99.90;;;;;;5110247;28;20438;-84
2022/10/21 06:04:19;;;;;;;16.45;6.93;;;11.10;99.90;;;;;;5093450;28;20131;-84
2022/10/21 06:06:45;;;;;;;13.57;6.88;;;11.10;99.90;;;;;;5092316;28;20036;-84
2022/10/21 06:09:12;;;;;;;13.38;6.40;;;11.10;99.90;;;;;;5076125;28;20075;-85
2022/10/21 06:11:38;;;;;;;25.08;6.63;;;11.00;99.90;;;;;;5076448;28;20496;-85
2022/10/21 06:14:05;;;;;;;19.75;7.30;;;11.10;99.90;;;;;;5126711;28;20492;-84
2022/10/21 06:16:34;;;;;;;13.13;6.20;;;11.00;99.90;;;;;;5110968;28;20055;-85
2022/10/21 06:19:01;;;;;;;18.50;6.85;;;11.10;99.90;;;;;;5094837;28;20044;-85
2022/10/21 06:21:28;;;;;;;13.57;6.43;;;11.10;99.90;;;;;;5092823;28;20036;-84
2022/10/21 06:23:55;;;;;;;13.90;6.40;;;11.10;99.90;;;;;;5076975;28;20043;-84
2022/10/21 06:26:21;;;;;;;14.98;6.53;;;11.00;99.90;;;;;;5109773;28;20169;-84
2022/10/21 06:28:48;;;;;;;18.48;6.85;;;11.00;99.90;;;;;;5110319;28;20491;-84
2022/10/21 06:31:17;;;;;;;15.80;6.28;;;11.00;99.90;;;;;;5090147;28;20035;-84
2022/10/21 06:33:44;;;;;;;13.48;6.50;;;11.00;99.90;;;;;;5092499;28;20553;-84
2022/10/21 06:36:10;;;;;;;20.42;6.75;;;11.00;99.90;;;;;;5080668;28;20048;-84
2022/10/21 06:38:37;;;;;;;13.48;6.32;;;11.00;99.90;;;;;;5086668;28;20404;-83
2022/10/21 06:41:06;;;;;;;17.80;6.53;;;10.90;99.90;;;;;;5107758;28;20513;-84
2022/10/21 06:43:33;;;;;;;17.48;7.30;;;10.90;99.90;;;;;;5093577;28;20035;-84
2022/10/21 06:46:01;;;;;;;11.35;6.15;;;10.90;99.90;;;;;;5109804;28;20036;-84
2022/10/21 06:48:28;;;;;;;14.27;6.68;;;10.80;99.90;;;;;;5075975;28;20042;-85
2022/10/21 06:51:07;;;;;;;11.80;5.80;;;10.90;99.90;;;;;;5092760;28;20044;-84
2022/10/21 06:53:35;;;;;;;12.93;6.13;;;10.80;99.90;;;;;;5109501;28;20043;-84
2022/10/21 06:56:04;;;;;;;16.50;6.13;;;10.80;99.90;;;;;;5109808;28;20130;-84
2022/10/21 06:58:31;;;;;;;13.15;5.95;;;10.80;99.90;;;;;;5109073;28;20071;-84
2022/10/21 07:00:58;;;;;;;14.00;5.75;;;10.90;99.90;;;;;;5109761;28;20494;-84
2022/10/21 07:03:24;;;;;;;16.17;5.85;;;10.90;99.90;;;;;;5092533;28;20043;-84
2022/10/21 07:05:58;;;;;;;13.65;5.25;;;10.90;99.90;;;;;;5109597;28;20044;-84
2022/10/21 07:08:29;;;;;;;13.20;6.18;;;10.90;99.90;;;;;;5108811;28;20044;-84
2022/10/21 07:10:56;;;;;;;17.40;6.25;;;10.90;99.90;;;;;;5092615;28;20075;-84
2022/10/21 07:13:23;;;;;;;13.77;6.05;;;10.90;99.90;;;;;;5092617;28;20036;-85
2022/10/21 07:16:00;;;;;;;13.43;6.07;;;10.90;99.90;;;;;;5104890;28;20055;-85
2022/10/21 07:18:28;;;;;;;13.07;5.88;;;11.00;99.90;;;;;;5095661;28;20032;-85
2022/10/21 07:21:05;;;;;;;20.23;6.03;;;11.00;99.90;;;;;;5095633;28;20860;-85
2022/10/21 07:23:32;;;;;;;19.27;7.18;;;11.00;99.90;;;;;;5109163;28;20075;-85
2022/10/21 07:26:03;;;;;;;13.07;6.00;;;11.00;99.90;;;;;;5092692;28;20078;-85
2022/10/21 07:28:32;;;;;;;12.73;6.22;;;11.10;99.90;;;;;;5109988;28;20473;-85
2022/10/21 07:30:59;;;;;;;16.73;7.07;;;11.10;99.90;;;;;;5109386;28;20048;-86
2022/10/21 07:33:26;;;;;;;15.00;6.72;;;11.10;99.90;;;;;;5070556;28;20562;-86
2022/10/21 07:36:06;;;;;;;13.13;6.13;;;11.10;99.90;;;;;;5081444;28;20044;-86
2022/10/21 07:38:33;;;;;;;15.02;6.72;;;11.10;99.90;;;;;;5089482;28;20043;-85
2022/10/21 07:41:00;;;;;;;18.90;6.68;;;11.20;99.90;;;;;;5072416;28;20082;-85
2022/10/21 07:43:27;;;;;;;16.42;7.00;;;11.20;99.90;;;;;;5091816;28;20475;-85
2022/10/21 07:45:57;;;;;;;13.93;6.80;;;11.20;99.90;;;;;;5108994;28;20848;-85
2022/10/21 07:48:25;;;;;;;18.23;6.05;;;11.30;99.90;;;;;;5091929;28;20510;-85
2022/10/21 07:50:51;;;;;;;20.40;7.22;;;11.30;99.90;;;;;;5092335;28;20132;-85
2022/10/21 07:53:19;;;;;;;15.63;7.45;;;11.40;99.90;;;;;;5092122;28;20575;-84
2022/10/21 07:55:45;;;;;;;20.50;8.75;;;11.50;99.90;;;;;;5092566;28;20036;-85
2022/10/21 07:58:12;;;;;;;19.23;7.88;;;11.60;99.90;;;;;;5092521;28;20032;-84
2022/10/21 08:00:42;;;;;;;22.52;8.38;;;11.60;99.90;;;;;;5108129;28;20404;-83
2022/10/21 08:03:11;;;;;;;17.48;7.30;;;11.70;99.90;;;;;;5125943;28;20136;-84
2022/10/21 08:05:40;;;;;;;19.65;7.68;;;11.70;99.90;;;;;;5108495;28;20093;-84
2022/10/21 08:08:10;;;;;;;16.70;7.93;;;11.80;99.90;;;;;;5126025;28;20101;-84
2022/10/21 08:10:40;;;;;;;15.88;7.38;;;11.80;99.90;;;;;;5092359;28;20048;-85
2022/10/21 08:13:09;;;;;;;15.60;7.07;;;11.90;99.90;;;;;;5109063;28;20036;-85
2022/10/21 08:15:41;;;;;;;18.75;7.20;;;11.90;99.90;;;;;;5092302;28;20087;-86
2022/10/21 08:18:08;;;;;;;14.88;6.95;;;12.00;99.90;;;;;;5109146;28;20055;-85
2022/10/21 08:20:38;;;;;;;16.42;6.65;;;12.10;99.90;;;;;;5075276;28;20040;-84
2022/10/21 08:23:06;;;;;;;17.33;7.30;;;12.20;99.90;;;;;;5125933;28;20044;-85
2022/10/21 08:25:34;;;;;;;16.02;7.22;;;12.40;99.90;;;;;;5075130;28;20044;-84
2022/10/21 08:28:02;;;;;;;18.85;7.03;;;12.50;99.90;;;;;;5078366;28;20040;-85
2022/10/21 08:30:30;;;;;;;15.73;7.30;;;12.50;99.90;;;;;;5107610;28;20055;-84
2022/10/21 08:33:00;;;;;;;17.80;6.97;;;12.60;99.90;;;;;;5109835;28;20040;-85
2022/10/21 08:35:27;;;;;;;15.80;7.10;;;12.80;99.90;;;;;;5095458;28;20040;-85
2022/10/21 08:37:54;;;;;;;16.27;7.57;;;12.90;99.90;;;;;;5095917;28;20070;-85
2022/10/21 08:40:21;;;;;;;17.15;7.43;;;12.90;99.90;;;;;;5096094;28;20040;-85
2022/10/21 08:42:48;;;;;;;18.42;7.18;;;13.00;99.90;;;;;;5095238;28;20044;-84
2022/10/21 08:45:42;;;;;;;13.88;6.80;;;13.10;99.90;;;;;;5079106;28;20410;-85
2022/10/21 08:48:15;;;;;;;16.92;6.90;;;13.10;99.90;;;;;;5112336;28;20094;-85
2022/10/21 08:50:47;;;;;;;15.68;7.20;;;13.20;99.90;;;;;;5112139;28;20071;-85
2022/10/21 08:53:31;;;;;;;17.85;6.90;;;13.20;99.90;;;;;;5111973;28;20850;-85
2022/10/21 08:56:10;;;;;;;17.33;7.43;;;13.20;99.90;;;;;;5112031;28;20803;-84
2022/10/21 08:58:37;;;;;;;12.98;6.40;;;13.30;99.90;;;;;;5127875;28;20519;-85
2022/10/21 09:01:27;;;;;;;15.70;6.85;;;13.30;99.90;;;;;;5095078;28;20032;-84
2022/10/21 09:04:05;;;;;;;13.48;6.55;;;13.30;99.90;;;;;;5128865;28;20503;-84
2022/10/21 09:06:55;;;;;;;19.52;6.45;;;13.30;99.90;;;;;;5091455;28;20094;-84
2022/10/21 09:09:37;;;;;;;12.20;6.05;;;13.40;99.90;;;;;;5111872;28;20040;-84
2022/10/21 09:12:30;;;;;;;15.52;6.20;;;13.50;99.90;;;;;;5111698;28;20052;-84
2022/10/21 09:15:13;;;;;;;14.65;6.72;;;13.50;99.90;;;;;;5111700;28;20404;-84
2022/10/21 09:17:48;;;;;;;13.77;6.72;;;13.60;99.90;;;;;;5111428;28;20083;-84
2022/10/21 09:20:30;;;;;;;;;;;13.60;99.90;;;;;;5128937;28;20484;-84
2022/10/21 09:23:15;;;;;;;20.30;6.35;;;13.70;99.90;;;;;;5120737;28;19955;-84
2022/10/21 09:25:45;;;;;;;13.48;6.35;;;13.70;99.90;;;;;;5090438;28;20051;-84
2022/10/21 09:28:14;;;;;;;12.98;6.60;;;13.80;99.90;;;;;;5091144;28;20040;-84
2022/10/21 09:30:42;;;;;;;17.02;6.30;;;13.90;99.90;;;;;;5094406;28;20042;-84
2022/10/21 09:33:31;;;;;;;10.88;6.40;;;14.00;99.90;;;;;;5088755;28;20591;-83
2022/10/21 09:36:05;;;;;;;12.45;6.47;;;14.20;99.90;;;;;;5104668;28;20036;-84
2022/10/21 09:38:49;;;;;;;12.63;6.43;;;14.20;99.90;;;;;;5110612;28;20042;-83
2022/10/21 09:41:18;;;;;;;15.20;6.15;;;14.30;99.90;;;;;;5111068;28;20039;-84
2022/10/21 09:43:47;;;;;;;13.80;6.60;;;14.30;99.90;;;;;;5105766;28;20127;-84
2022/10/21 09:46:18;;;;;;;14.85;6.15;;;14.40;99.90;;;;;;5073986;28;20102;-84
2022/10/21 09:48:48;;;;;;;12.43;5.57;;;14.40;99.90;;;;;;5074054;28;20059;-85
2022/10/21 09:51:23;;;;;;;14.80;6.43;;;14.50;99.90;;;;;;5091191;28;20050;-84
2022/10/21 09:53:54;;;;;;;17.10;5.80;;;14.60;99.90;;;;;;5090583;28;20040;-84
2022/10/21 09:56:22;;;;;;;11.80;6.13;;;14.60;99.90;;;;;;5090913;28;20039;-84
2022/10/21 09:59:04;;;;;;;17.52;6.07;;;14.70;99.90;;;;;;5090551;28;20047;-85
2022/10/21 10:01:31;;;;;;;11.38;5.93;;;14.80;99.90;;;;;;5106730;28;20038;-85
2022/10/21 10:03:58;;;;;;;10.65;5.80;;;14.90;99.90;;;;;;5110578;28;20127;-84
2022/10/21 10:06:37;;;;;;;13.07;5.85;;;15.00;99.90;;;;;;5110671;28;20039;-85
2022/10/21 10:09:12;;;;;;;12.10;5.72;;;15.20;99.90;;;;;;5127832;28;20061;-85
2022/10/21 10:11:55;;;;;;;11.98;6.35;;;15.30;99.90;;;;;;5110546;28;20048;-85
2022/10/21 10:14:27;;;;;;;11.82;5.53;;;15.30;99.90;;;;;;5110238;28;20056;-85
2022/10/21 10:16:54;;;;;;;12.55;5.82;;;15.40;99.90;;;;;;5127050;28;20085;-84
2022/10/21 10:19:27;;;;;;;18.13;5.00;;;15.40;99.90;;;;;;5110343;28;20028;-85
2022/10/21 10:22:10;;;;;;;11.63;5.65;;;15.40;99.90;;;;;;5104086;28;20040;-85
2022/10/21 10:24:41;;;;;;;15.02;5.80;;;15.50;99.90;;;;;;5114614;28;20492;-87
2022/10/21 10:27:15;;;;;;;10.85;5.18;;;15.50;99.90;;;;;;5106204;28;20068;-84
2022/10/21 10:29:53;;;;;;;12.98;5.68;;;15.60;99.90;;;;;;5100722;28;20044;-85
2022/10/21 10:32:23;;;;;;;14.63;5.05;;;15.50;99.90;;;;;;5102691;28;20047;-85
2022/10/21 10:34:56;;;;;;;10.43;5.00;;;15.60;99.90;;;;;;5104127;28;20037;-85
2022/10/21 10:37:32;;;;;;;12.65;5.50;;;15.60;99.90;;;;;;5105587;28;20039;-85
2022/10/21 10:40:01;;;;;;;12.18;4.85;;;15.50;99.90;;;;;;5099353;28;20548;-84
2022/10/21 10:42:32;;;;;;;12.73;5.22;;;15.50;99.90;;;;;;5101719;28;20119;-85
2022/10/21 10:45:11;;;;;;;13.55;5.30;;;15.50;99.90;;;;;;5098201;28;20039;-85
2022/10/21 10:47:53;;;;;;;10.65;5.20;;;15.40;99.90;;;;;;5109698;28;20036;-85
2022/10/21 10:50:40;;;;;;;9.07;4.55;;;15.40;99.90;;;;;;5109920;28;20127;-85
2022/10/21 10:53:26;;;;;;;10.60;4.78;;;15.40;99.90;;;;;;5109479;28;20036;-85
2022/10/21 10:56:02;;;;;;;12.50;4.78;;;15.40;99.90;;;;;;5108824;28;20036;-85
2022/10/21 10:58:32;;;;;;;9.73;4.68;;;15.40;99.90;;;;;;5126571;28;20047;-84
2022/10/21 11:01:07;;;;;;;13.63;4.80;;;15.40;99.90;;;;;;5100505;28;20366;-84
2022/10/21 11:03:46;;;;;;;11.57;5.13;;;15.40;99.90;;;;;;5096598;28;20494;-84
2022/10/21 11:06:16;;;;;;;14.65;5.20;;;15.40;99.90;;;;;;5126321;28;20051;-84
2022/10/21 11:08:58;;;;;;;11.13;5.63;;;15.40;99.90;;;;;;5109181;28;20040;-84
2022/10/21 11:11:44;;;;;;;10.07;4.72;;;15.50;99.90;;;;;;5105363;28;20125;-84
2022/10/21 11:14:14;;;;;;;8.88;4.55;;;15.50;99.90;;;;;;5101211;28;20056;-84
2022/10/21 11:17:10;;;;;;;9.48;4.82;;;15.50;99.90;;;;;;5109403;28;20122;-84
2022/10/21 11:20:01;;;;;;;9.85;5.20;;;15.60;99.90;;;;;;5125923;28;20036;-84
2022/10/21 11:22:42;;;;;;;7.65;4.07;;;15.60;99.90;;;;;;5099204;28;20048;-84
2022/10/21 11:25:18;;;;;;;8.23;4.45;;;15.60;99.90;;;;;;5125785;28;20086;-84
2022/10/21 11:28:12;;;;;;;9.05;4.68;;;15.70;99.90;;;;;;5108773;28;20496;-83
2022/10/21 11:31:03;;;;;;;10.75;4.55;;;15.70;99.90;;;;;;5126001;28;20119;-84
2022/10/21 11:33:55;;;;;;;8.95;4.28;;;15.70;99.90;;;;;;5126213;28;20072;-84
2022/10/21 11:37:04;;;;;;;11.38;4.45;;;15.70;99.90;;;;;;5109410;28;20526;-84
2022/10/21 11:40:07;;;;;;;10.32;4.63;;;15.70;99.90;;;;;;5088147;28;20547;-84
2022/10/21 11:42:43;;;;;;;11.50;4.80;;;15.70;99.90;;;;;;5108787;28;20666;-84
2022/10/21 11:45:27;;;;;;;10.73;4.68;;;15.80;99.90;;;;;;5108471;28;20040;-83
2022/10/21 11:48:09;;;;;;;12.77;4.45;;;15.80;99.90;;;;;;5108730;28;20040;-86
2022/10/21 11:50:42;;;;;;;9.88;4.60;;;15.80;99.90;;;;;;5109387;28;20040;-86
2022/10/21 11:53:39;;;;;;;11.50;4.75;;;15.80;99.90;;;;;;5109578;28;20075;-86
2022/10/21 11:56:18;;;;;;;13.75;5.00;;;15.80;99.90;;;;;;5109743;28;20036;-87
2022/10/21 11:58:56;;;;;;;12.63;5.18;;;15.90;99.90;;;;;;5109746;28;20623;-86
2022/10/21 12:01:47;;;;;;;9.98;4.63;;;15.90;99.90;;;;;;5109743;28;20072;-86
2022/10/21 12:04:40;;;;;;;9.50;4.45;;;16.00;99.90;;;;;;5109256;28;20047;-86
2022/10/21 12:07:18;;;;;;;12.73;5.05;;;16.00;99.90;;;;;;5109206;28;20040;-86
2022/10/21 12:10:01;;;;;;;9.13;4.45;;;16.00;99.90;;;;;;5113567;28;20046;-86
2022/10/21 12:12:41;;;;;;;9.48;4.53;;;16.00;99.90;;;;;;5113319;28;20122;-86
2022/10/21 12:15:21;;;;;;;7.90;4.32;;;16.00;99.90;;;;;;5112992;28;20048;-87
2022/10/21 12:17:48;;;;;;;11.82;4.78;;;16.10;99.90;;;;;;5113453;28;20454;-87
2022/10/21 12:20:22;;;;;;;10.50;4.80;;;16.10;99.90;;;;;;5129863;28;20036;-86
2022/10/21 12:22:53;;;;;;;9.00;4.75;;;16.00;99.90;;;;;;5113387;28;20032;-86
2022/10/21 12:25:40;;;;;;;10.05;4.97;;;16.00;99.90;;;;;;5096961;28;20098;-86
2022/10/21 12:28:22;;;;;;;9.30;4.75;;;16.00;99.90;;;;;;5112782;28;20040;-87
2022/10/21 12:31:26;;;;;;;11.23;4.47;;;16.00;99.90;;;;;;5113242;28;20446;-87
2022/10/21 12:33:54;;;;;;;11.32;4.97;;;16.00;99.90;;;;;;5113148;28;20503;-86
2022/10/21 12:36:24;;;;;;;14.65;4.55;;;16.00;99.90;;;;;;5112826;28;20043;-86
2022/10/21 12:38:58;;;;;;;12.45;4.70;;;16.70;99.90;;;;;;5113443;28;20040;-87
2022/10/21 12:41:36;;;;;;;9.93;4.63;;;16.10;99.90;;;;;;5129847;28;20582;-86
2022/10/21 12:44:16;;;;;;;12.40;5.82;;;16.00;99.90;;;;;;5112646;28;20537;-86
2022/10/21 12:46:53;;;;;;;8.88;4.95;;;16.00;99.90;;;;;;5112937;28;20527;-87
2022/10/21 12:49:34;;;;;;;9.75;4.90;;;16.10;99.90;;;;;;5129351;28;20511;-86
2022/10/21 12:52:07;;;;;;;7.85;4.20;;;16.00;99.90;;;;;;5112816;28;20036;-87
2022/10/21 12:55:01;;;;;;;15.80;4.55;;;16.00;99.90;;;;;;5112813;28;20036;-86
2022/10/21 12:57:29;;;;;;;13.45;5.00;;;16.00;99.90;;;;;;5124358;28;20059;-86
2022/10/21 13:00:21;;;;;;;8.48;4.70;;;16.00;99.90;;;;;;5112876;28;20074;-87
2022/10/21 13:03:04;;;;;;;9.40;4.65;;;15.50;99.90;;;;;;5112478;28;20048;-86
2022/10/21 13:05:37;;;;;;;11.68;5.00;;;15.90;99.90;;;;;;5112539;28;20036;-87